sensor_id;sensor_type;location;lat;lon;timestamp;temperature;humidity
21807;DHT22;11065;50.786;7.840;2022-08-06T00:00:17;17.00;44.80
21807;DHT22;11065;50.786;7.840;2022-08-06T00:02:53;17.00;44.90
21807;DHT22;11065;50.786;7.840;2022-08-06T00:05:20;16.90;44.80
21807;DHT22;11065;50.786;7.840;2022-08-06T00:08:00;16.90;45.00
21807;DHT22;11065;50.786;7.840;2022-08-06T00:10:28;16.80;44.90
21807;DHT22;11065;50.786;7.840;2022-08-06T00:13:02;16.80;45.00
21807;DHT22;11065;50.786;7.840;2022-08-06T00:15:31;16.70;45.20
21807;DHT22;11065;50.786;7.840;2022-08-06T00:18:18;16.70;45.20
21807;DHT22;11065;50.786;7.840;2022-08-06T00:20:46;16.70;45.20
21807;DHT22;11065;50.786;7.840;2022-08-06T00:23:16;16.60;45.20
21807;DHT22;11065;50.786;7.840;2022-08-06T00:25:45;16.60;45.30
21807;DHT22;11065;50.786;7.840;2022-08-06T00:28:23;16.50;45.30
21807;DHT22;11065;50.786;7.840;2022-08-06T00:31:02;16.50;45.50
21807;DHT22;11065;50.786;7.840;2022-08-06T00:33:40;16.40;45.60
21807;DHT22;11065;50.786;7.840;2022-08-06T00:36:17;16.40;45.50
21807;DHT22;11065;50.786;7.840;2022-08-06T00:38:51;16.30;45.50
21807;DHT22;11065;50.786;7.840;2022-08-06T00:41:19;16.30;45.70
21807;DHT22;11065;50.786;7.840;2022-08-06T00:43:48;16.30;45.70
21807;DHT22;11065;50.786;7.840;2022-08-06T00:46:15;16.20;45.70
21807;DHT22;11065;50.786;7.840;2022-08-06T00:48:45;16.20;45.80
21807;DHT22;11065;50.786;7.840;2022-08-06T00:51:21;16.10;45.80
21807;DHT22;11065;50.786;7.840;2022-08-06T00:53:49;16.10;45.90
21807;DHT22;11065;50.786;7.840;2022-08-06T00:56:24;16.00;46.00
21807;DHT22;11065;50.786;7.840;2022-08-06T00:58:55;16.00;46.00
21807;DHT22;11065;50.786;7.840;2022-08-06T01:01:30;15.90;46.00
21807;DHT22;11065;50.786;7.840;2022-08-06T01:04:16;15.90;46.10
21807;DHT22;11065;50.786;7.840;2022-08-06T01:06:43;15.90;46.20
21807;DHT22;11065;50.786;7.840;2022-08-06T01:09:24;15.80;46.30
21807;DHT22;11065;50.786;7.840;2022-08-06T01:11:51;15.80;46.40
21807;DHT22;11065;50.786;7.840;2022-08-06T01:14:25;15.70;46.40
21807;DHT22;11065;50.786;7.840;2022-08-06T01:24:02;15.60;47.10
21807;DHT22;11065;50.786;7.840;2022-08-06T01:26:49;15.50;47.10
21807;DHT22;11065;50.786;7.840;2022-08-06T01:32:10;15.50;46.70
21807;DHT22;11065;50.786;7.840;2022-08-06T01:34:41;15.40;46.90
21807;DHT22;11065;50.786;7.840;2022-08-06T01:40:08;15.30;47.10
21807;DHT22;11065;50.786;7.840;2022-08-06T01:42:38;15.30;46.90
21807;DHT22;11065;50.786;7.840;2022-08-06T01:45:13;15.30;47.00
21807;DHT22;11065;50.786;7.840;2022-08-06T01:47:43;15.20;47.00
21807;DHT22;11065;50.786;7.840;2022-08-06T01:50:26;15.20;47.10
21807;DHT22;11065;50.786;7.840;2022-08-06T01:52:57;15.10;47.20
21807;DHT22;11065;50.786;7.840;2022-08-06T01:55:31;15.10;47.20
21807;DHT22;11065;50.786;7.840;2022-08-06T01:58:22;15.10;47.30
21807;DHT22;11065;50.786;7.840;2022-08-06T02:01:00;15.00;47.20
21807;DHT22;11065;50.786;7.840;2022-08-06T02:03:36;15.00;47.80
21807;DHT22;11065;50.786;7.840;2022-08-06T02:06:22;14.90;47.70
21807;DHT22;11065;50.786;7.840;2022-08-06T02:08:59;14.90;47.60
21807;DHT22;11065;50.786;7.840;2022-08-06T02:12:16;14.90;47.60
21807;DHT22;11065;50.786;7.840;2022-08-06T02:14:50;14.90;47.70
21807;DHT22;11065;50.786;7.840;2022-08-06T02:17:22;14.80;47.70
21807;DHT22;11065;50.786;7.840;2022-08-06T02:20:11;14.80;47.60
21807;DHT22;11065;50.786;7.840;2022-08-06T02:23:02;14.70;47.60
21807;DHT22;11065;50.786;7.840;2022-08-06T02:25:29;14.70;47.70
21807;DHT22;11065;50.786;7.840;2022-08-06T02:31:19;14.70;48.30
21807;DHT22;11065;50.786;7.840;2022-08-06T02:33:49;14.60;47.60
21807;DHT22;11065;50.786;7.840;2022-08-06T02:37:11;14.60;47.80
21807;DHT22;11065;50.786;7.840;2022-08-06T02:40:04;14.60;48.20
21807;DHT22;11065;50.786;7.840;2022-08-06T02:42:42;14.50;48.30
21807;DHT22;11065;50.786;7.840;2022-08-06T02:45:27;14.50;48.20
21807;DHT22;11065;50.786;7.840;2022-08-06T02:48:10;14.40;48.30
21807;DHT22;11065;50.786;7.840;2022-08-06T02:50:49;14.40;48.10
21807;DHT22;11065;50.786;7.840;2022-08-06T02:53:26;14.40;48.10
21807;DHT22;11065;50.786;7.840;2022-08-06T02:56:12;14.30;48.10
21807;DHT22;11065;50.786;7.840;2022-08-06T02:58:42;14.30;48.30
21807;DHT22;11065;50.786;7.840;2022-08-06T03:01:27;14.30;48.10
21807;DHT22;11065;50.786;7.840;2022-08-06T03:04:06;14.20;48.20
21807;DHT22;11065;50.786;7.840;2022-08-06T03:06:35;14.20;48.20
21807;DHT22;11065;50.786;7.840;2022-08-06T03:09:05;14.20;48.30
21807;DHT22;11065;50.786;7.840;2022-08-06T03:11:36;14.20;48.40
21807;DHT22;11065;50.786;7.840;2022-08-06T03:14:06;14.10;48.40
21807;DHT22;11065;50.786;7.840;2022-08-06T03:16:54;14.10;48.40
21807;DHT22;11065;50.786;7.840;2022-08-06T03:19:26;14.10;48.40
21807;DHT22;11065;50.786;7.840;2022-08-06T03:22:16;14.00;48.40
21807;DHT22;11065;50.786;7.840;2022-08-06T03:25:07;14.00;48.50
21807;DHT22;11065;50.786;7.840;2022-08-06T03:27:36;14.00;48.50
21807;DHT22;11065;50.786;7.840;2022-08-06T03:30:16;13.90;48.50
21807;DHT22;11065;50.786;7.840;2022-08-06T03:33:02;13.90;48.60
21807;DHT22;11065;50.786;7.840;2022-08-06T03:35:34;13.90;48.60
21807;DHT22;11065;50.786;7.840;2022-08-06T03:38:16;13.90;48.60
21807;DHT22;11065;50.786;7.840;2022-08-06T03:40:46;13.80;48.50
21807;DHT22;11065;50.786;7.840;2022-08-06T03:43:15;13.80;48.60
21807;DHT22;11065;50.786;7.840;2022-08-06T03:45:58;13.80;48.60
21807;DHT22;11065;50.786;7.840;2022-08-06T03:48:28;13.80;48.80
21807;DHT22;11065;50.786;7.840;2022-08-06T03:51:09;13.70;48.70
21807;DHT22;11065;50.786;7.840;2022-08-06T03:53:39;13.70;48.70
21807;DHT22;11065;50.786;7.840;2022-08-06T03:56:18;13.70;48.80
21807;DHT22;11065;50.786;7.840;2022-08-06T03:58:59;13.70;48.90
21807;DHT22;11065;50.786;7.840;2022-08-06T04:01:36;13.60;48.90
21807;DHT22;11065;50.786;7.840;2022-08-06T04:04:16;13.60;48.90
21807;DHT22;11065;50.786;7.840;2022-08-06T04:06:57;13.60;48.90
21807;DHT22;11065;50.786;7.840;2022-08-06T04:09:31;13.50;49.10
21807;DHT22;11065;50.786;7.840;2022-08-06T04:12:20;13.50;49.00
21807;DHT22;11065;50.786;7.840;2022-08-06T04:15:08;13.50;49.00
21807;DHT22;11065;50.786;7.840;2022-08-06T04:17:36;13.40;48.90
21807;DHT22;11065;50.786;7.840;2022-08-06T04:20:13;13.40;49.10
21807;DHT22;11065;50.786;7.840;2022-08-06T04:22:41;13.40;49.20
21807;DHT22;11065;50.786;7.840;2022-08-06T04:25:38;13.40;49.20
21807;DHT22;11065;50.786;7.840;2022-08-06T04:28:10;13.40;49.80
21807;DHT22;11065;50.786;7.840;2022-08-06T04:30:40;13.30;49.20
21807;DHT22;11065;50.786;7.840;2022-08-06T04:33:19;13.30;49.30
21807;DHT22;11065;50.786;7.840;2022-08-06T04:36:02;13.30;49.30
21807;DHT22;11065;50.786;7.840;2022-08-06T04:38:45;13.30;49.40
21807;DHT22;11065;50.786;7.840;2022-08-06T04:41:19;13.30;49.40
21807;DHT22;11065;50.786;7.840;2022-08-06T04:43:46;13.30;49.40
21807;DHT22;11065;50.786;7.840;2022-08-06T04:46:21;13.30;49.50
21807;DHT22;11065;50.786;7.840;2022-08-06T04:48:49;13.20;49.50
21807;DHT22;11065;50.786;7.840;2022-08-06T04:51:23;13.20;49.60
21807;DHT22;11065;50.786;7.840;2022-08-06T04:54:10;13.20;49.70
21807;DHT22;11065;50.786;7.840;2022-08-06T04:56:39;13.20;49.60
21807;DHT22;11065;50.786;7.840;2022-08-06T04:59:16;13.30;49.80
21807;DHT22;11065;50.786;7.840;2022-08-06T05:01:44;13.30;49.80
21807;DHT22;11065;50.786;7.840;2022-08-06T05:04:29;13.30;49.80
21807;DHT22;11065;50.786;7.840;2022-08-06T05:07:16;13.30;50.00
21807;DHT22;11065;50.786;7.840;2022-08-06T05:09:43;13.30;50.40
21807;DHT22;11065;50.786;7.840;2022-08-06T05:12:26;13.30;50.10
21807;DHT22;11065;50.786;7.840;2022-08-06T05:15:26;13.30;50.20
21807;DHT22;11065;50.786;7.840;2022-08-06T05:18:17;13.30;50.70
21807;DHT22;11065;50.786;7.840;2022-08-06T05:21:07;13.30;50.80
21807;DHT22;11065;50.786;7.840;2022-08-06T05:23:53;13.30;50.50
21807;DHT22;11065;50.786;7.840;2022-08-06T05:26:23;13.30;51.00
21807;DHT22;11065;50.786;7.840;2022-08-06T05:28:52;13.30;50.60
21807;DHT22;11065;50.786;7.840;2022-08-06T05:31:32;13.30;50.70
21807;DHT22;11065;50.786;7.840;2022-08-06T05:34:10;13.30;51.00
21807;DHT22;11065;50.786;7.840;2022-08-06T05:36:37;13.30;50.90
21807;DHT22;11065;50.786;7.840;2022-08-06T05:39:07;13.40;51.00
21807;DHT22;11065;50.786;7.840;2022-08-06T05:41:54;13.40;51.00
21807;DHT22;11065;50.786;7.840;2022-08-06T05:44:26;13.40;51.10
21807;DHT22;11065;50.786;7.840;2022-08-06T05:47:00;13.50;51.20
21807;DHT22;11065;50.786;7.840;2022-08-06T05:52:28;13.50;51.50
21807;DHT22;11065;50.786;7.840;2022-08-06T05:55:08;13.50;51.80
21807;DHT22;11065;50.786;7.840;2022-08-06T05:57:45;13.50;52.00
21807;DHT22;11065;50.786;7.840;2022-08-06T06:00:23;13.60;51.90
21807;DHT22;11065;50.786;7.840;2022-08-06T06:03:12;13.60;51.60
21807;DHT22;11065;50.786;7.840;2022-08-06T06:05:59;13.60;51.60
21807;DHT22;11065;50.786;7.840;2022-08-06T06:08:42;13.60;51.60
21807;DHT22;11065;50.786;7.840;2022-08-06T06:11:26;13.70;51.70
21807;DHT22;11065;50.786;7.840;2022-08-06T06:14:35;13.70;51.60
21807;DHT22;11065;50.786;7.840;2022-08-06T06:17:05;13.80;52.10
21807;DHT22;11065;50.786;7.840;2022-08-06T06:20:31;13.80;51.70
21807;DHT22;11065;50.786;7.840;2022-08-06T06:23:40;13.90;52.30
21807;DHT22;11065;50.786;7.840;2022-08-06T06:32:11;14.00;52.40
21807;DHT22;11065;50.786;7.840;2022-08-06T06:37:56;14.20;51.90
21807;DHT22;11065;50.786;7.840;2022-08-06T06:40:46;14.20;52.10
21807;DHT22;11065;50.786;7.840;2022-08-06T06:43:35;14.30;52.20
21807;DHT22;11065;50.786;7.840;2022-08-06T06:46:25;14.30;51.90
21807;DHT22;11065;50.786;7.840;2022-08-06T06:49:47;14.40;52.40
21807;DHT22;11065;50.786;7.840;2022-08-06T06:52:35;14.40;52.50
21807;DHT22;11065;50.786;7.840;2022-08-06T06:55:23;14.50;52.10
21807;DHT22;11065;50.786;7.840;2022-08-06T06:58:33;14.60;52.60
21807;DHT22;11065;50.786;7.840;2022-08-06T07:01:01;14.70;52.40
21807;DHT22;11065;50.786;7.840;2022-08-06T07:03:50;14.70;52.10
21807;DHT22;11065;50.786;7.840;2022-08-06T07:06:22;14.80;52.00
21807;DHT22;11065;50.786;7.840;2022-08-06T07:09:14;14.90;52.00
21807;DHT22;11065;50.786;7.840;2022-08-06T07:12:03;15.00;52.10
21807;DHT22;11065;50.786;7.840;2022-08-06T07:14:33;15.00;52.10
21807;DHT22;11065;50.786;7.840;2022-08-06T07:17:03;15.10;52.00
21807;DHT22;11065;50.786;7.840;2022-08-06T07:19:55;15.20;52.00
21807;DHT22;11065;50.786;7.840;2022-08-06T07:22:24;15.30;52.10
21807;DHT22;11065;50.786;7.840;2022-08-06T07:24:55;15.40;52.10
21807;DHT22;11065;50.786;7.840;2022-08-06T07:27:29;15.40;52.50
21807;DHT22;11065;50.786;7.840;2022-08-06T07:30:12;15.50;52.50
21807;DHT22;11065;50.786;7.840;2022-08-06T07:32:42;15.60;52.20
21807;DHT22;11065;50.786;7.840;2022-08-06T07:35:15;15.60;52.20
21807;DHT22;11065;50.786;7.840;2022-08-06T07:37:53;15.70;52.10
21807;DHT22;11065;50.786;7.840;2022-08-06T07:40:26;15.80;52.00
21807;DHT22;11065;50.786;7.840;2022-08-06T07:43:17;15.90;52.00
21807;DHT22;11065;50.786;7.840;2022-08-06T07:45:53;16.00;52.10
21807;DHT22;11065;50.786;7.840;2022-08-06T07:48:26;16.10;51.90
21807;DHT22;11065;50.786;7.840;2022-08-06T07:50:58;16.20;51.90
21807;DHT22;11065;50.786;7.840;2022-08-06T07:53:26;16.30;51.70
21807;DHT22;11065;50.786;7.840;2022-08-06T07:56:14;16.30;51.60
21807;DHT22;11065;50.786;7.840;2022-08-06T07:58:42;16.40;51.50
21807;DHT22;11065;50.786;7.840;2022-08-06T08:01:12;16.50;51.50
21807;DHT22;11065;50.786;7.840;2022-08-06T08:03:45;16.60;51.50
21807;DHT22;11065;50.786;7.840;2022-08-06T08:06:55;16.70;51.60
21807;DHT22;11065;50.786;7.840;2022-08-06T08:09:26;16.90;51.50
21807;DHT22;11065;50.786;7.840;2022-08-06T08:12:17;17.00;51.40
21807;DHT22;11065;50.786;7.840;2022-08-06T08:15:03;17.20;51.20
21807;DHT22;11065;50.786;7.840;2022-08-06T08:17:33;17.50;51.20
21807;DHT22;11065;50.786;7.840;2022-08-06T08:20:08;17.60;50.90
21807;DHT22;11065;50.786;7.840;2022-08-06T08:22:43;17.80;50.50
21807;DHT22;11065;50.786;7.840;2022-08-06T08:25:19;18.00;51.00
21807;DHT22;11065;50.786;7.840;2022-08-06T08:28:07;18.20;50.30
21807;DHT22;11065;50.786;7.840;2022-08-06T08:30:39;18.40;50.20
21807;DHT22;11065;50.786;7.840;2022-08-06T08:33:07;18.60;49.80
21807;DHT22;11065;50.786;7.840;2022-08-06T08:35:43;18.80;49.70
21807;DHT22;11065;50.786;7.840;2022-08-06T08:38:30;19.00;49.50
21807;DHT22;11065;50.786;7.840;2022-08-06T08:41:00;19.20;49.50
21807;DHT22;11065;50.786;7.840;2022-08-06T08:43:43;19.50;49.20
21807;DHT22;11065;50.786;7.840;2022-08-06T08:46:26;19.80;49.10
21807;DHT22;11065;50.786;7.840;2022-08-06T08:48:58;20.20;49.80
21807;DHT22;11065;50.786;7.840;2022-08-06T08:51:27;20.60;49.80
21807;DHT22;11065;50.786;7.840;2022-08-06T08:53:55;21.20;49.90
21807;DHT22;11065;50.786;7.840;2022-08-06T08:56:24;21.70;50.00
21807;DHT22;11065;50.786;7.840;2022-08-06T08:59:12;22.40;50.10
21807;DHT22;11065;50.786;7.840;2022-08-06T09:01:59;23.20;50.10
21807;DHT22;11065;50.786;7.840;2022-08-06T09:04:26;23.90;49.30
21807;DHT22;11065;50.786;7.840;2022-08-06T09:06:55;24.60;49.50
21807;DHT22;11065;50.786;7.840;2022-08-06T09:09:23;25.30;49.20
21807;DHT22;11065;50.786;7.840;2022-08-06T09:11:58;26.00;48.40
21807;DHT22;11065;50.786;7.840;2022-08-06T09:14:45;26.80;48.40
21807;DHT22;11065;50.786;7.840;2022-08-06T09:17:13;27.60;47.90
21807;DHT22;11065;50.786;7.840;2022-08-06T09:20:00;28.30;46.60
21807;DHT22;11065;50.786;7.840;2022-08-06T09:22:27;29.00;46.20
21807;DHT22;11065;50.786;7.840;2022-08-06T09:24:55;29.50;45.70
21807;DHT22;11065;50.786;7.840;2022-08-06T09:27:32;30.20;45.60
21807;DHT22;11065;50.786;7.840;2022-08-06T09:30:16;30.80;42.80
21807;DHT22;11065;50.786;7.840;2022-08-06T09:32:55;31.30;42.70
21807;DHT22;11065;50.786;7.840;2022-08-06T09:35:29;31.80;42.10
21807;DHT22;11065;50.786;7.840;2022-08-06T09:38:12;32.10;41.70
21807;DHT22;11065;50.786;7.840;2022-08-06T09:41:11;32.50;40.60
21807;DHT22;11065;50.786;7.840;2022-08-06T09:43:47;32.80;37.80
21807;DHT22;11065;50.786;7.840;2022-08-06T09:46:40;32.80;37.70
21807;DHT22;11065;50.786;7.840;2022-08-06T09:49:16;32.50;35.80
21807;DHT22;11065;50.786;7.840;2022-08-06T09:52:14;32.10;36.00
21807;DHT22;11065;50.786;7.840;2022-08-06T09:54:43;31.60;35.10
21807;DHT22;11065;50.786;7.840;2022-08-06T09:57:12;31.30;36.60
21807;DHT22;11065;50.786;7.840;2022-08-06T09:59:42;31.20;37.00
21807;DHT22;11065;50.786;7.840;2022-08-06T10:02:17;31.40;37.40
21807;DHT22;11065;50.786;7.840;2022-08-06T10:05:10;31.70;37.70
21807;DHT22;11065;50.786;7.840;2022-08-06T10:07:47;32.20;36.60
21807;DHT22;11065;50.786;7.840;2022-08-06T10:10:37;32.60;37.00
21807;DHT22;11065;50.786;7.840;2022-08-06T10:15:46;33.70;36.10
21807;DHT22;11065;50.786;7.840;2022-08-06T10:18:34;34.10;36.60
21807;DHT22;11065;50.786;7.840;2022-08-06T10:21:24;34.60;35.50
21807;DHT22;11065;50.786;7.840;2022-08-06T10:23:55;35.10;35.50
21807;DHT22;11065;50.786;7.840;2022-08-06T10:26:26;35.50;34.90
21807;DHT22;11065;50.786;7.840;2022-08-06T10:29:02;35.90;34.20
21807;DHT22;11065;50.786;7.840;2022-08-06T10:31:31;36.30;33.30
21807;DHT22;11065;50.786;7.840;2022-08-06T10:34:20;36.70;33.70
21807;DHT22;11065;50.786;7.840;2022-08-06T10:37:00;37.10;32.60
21807;DHT22;11065;50.786;7.840;2022-08-06T10:39:55;37.40;32.60
21807;DHT22;11065;50.786;7.840;2022-08-06T10:42:36;37.70;31.90
21807;DHT22;11065;50.786;7.840;2022-08-06T10:45:08;38.00;31.80
21807;DHT22;11065;50.786;7.840;2022-08-06T10:47:44;38.30;31.30
21807;DHT22;11065;50.786;7.840;2022-08-06T10:50:32;38.60;30.40
21807;DHT22;11065;50.786;7.840;2022-08-06T10:53:11;38.80;30.90
21807;DHT22;11065;50.786;7.840;2022-08-06T10:56:01;38.90;30.30
21807;DHT22;11065;50.786;7.840;2022-08-06T10:58:31;39.00;29.80
21807;DHT22;11065;50.786;7.840;2022-08-06T11:01:01;38.90;28.80
21807;DHT22;11065;50.786;7.840;2022-08-06T11:03:58;38.70;28.80
21807;DHT22;11065;50.786;7.840;2022-08-06T11:15:13;38.80;28.30
21807;DHT22;11065;50.786;7.840;2022-08-06T11:17:42;38.90;28.70
21807;DHT22;11065;50.786;7.840;2022-08-06T11:23:21;39.40;28.10
21807;DHT22;11065;50.786;7.840;2022-08-06T11:26:08;39.50;28.10
21807;DHT22;11065;50.786;7.840;2022-08-06T11:31:05;39.60;27.30
21807;DHT22;11065;50.786;7.840;2022-08-06T11:36:06;39.70;27.30
21807;DHT22;11065;50.786;7.840;2022-08-06T11:41:28;39.80;26.40
21807;DHT22;11065;50.786;7.840;2022-08-06T11:44:17;39.90;26.90
21807;DHT22;11065;50.786;7.840;2022-08-06T11:47:12;39.90;26.80
21807;DHT22;11065;50.786;7.840;2022-08-06T11:49:42;39.90;26.30
21807;DHT22;11065;50.786;7.840;2022-08-06T11:55:07;39.90;26.10
21807;DHT22;11065;50.786;7.840;2022-08-06T11:57:38;39.70;25.60
21807;DHT22;11065;50.786;7.840;2022-08-06T12:00:21;39.30;25.60
21807;DHT22;11065;50.786;7.840;2022-08-06T12:02:51;38.90;25.50
21807;DHT22;11065;50.786;7.840;2022-08-06T12:08:14;38.80;26.10
21807;DHT22;11065;50.786;7.840;2022-08-06T12:11:20;38.80;25.90
21807;DHT22;11065;50.786;7.840;2022-08-06T12:13:49;39.00;26.00
21807;DHT22;11065;50.786;7.840;2022-08-06T12:16:35;39.10;26.20
21807;DHT22;11065;50.786;7.840;2022-08-06T12:19:05;39.20;25.40
21807;DHT22;11065;50.786;7.840;2022-08-06T12:21:33;39.30;25.70
21807;DHT22;11065;50.786;7.840;2022-08-06T12:24:11;39.40;25.70
21807;DHT22;11065;50.786;7.840;2022-08-06T12:26:38;39.40;25.60
21807;DHT22;11065;50.786;7.840;2022-08-06T12:29:08;39.40;25.40
21807;DHT22;11065;50.786;7.840;2022-08-06T12:31:36;39.50;25.40
21807;DHT22;11065;50.786;7.840;2022-08-06T12:34:26;39.50;25.30
21807;DHT22;11065;50.786;7.840;2022-08-06T12:36:57;39.60;24.70
21807;DHT22;11065;50.786;7.840;2022-08-06T12:39:25;39.70;25.10
21807;DHT22;11065;50.786;7.840;2022-08-06T12:42:24;39.80;24.80
21807;DHT22;11065;50.786;7.840;2022-08-06T12:45:11;39.80;24.30
21807;DHT22;11065;50.786;7.840;2022-08-06T12:48:00;39.80;24.50
21807;DHT22;11065;50.786;7.840;2022-08-06T12:50:33;39.80;24.40
21807;DHT22;11065;50.786;7.840;2022-08-06T12:53:19;39.80;24.40
21807;DHT22;11065;50.786;7.840;2022-08-06T12:55:48;39.80;24.00
21807;DHT22;11065;50.786;7.840;2022-08-06T13:01:12;39.70;24.00
21807;DHT22;11065;50.786;7.840;2022-08-06T13:04:00;39.60;23.80
21807;DHT22;11065;50.786;7.840;2022-08-06T13:06:33;39.70;24.00
21807;DHT22;11065;50.786;7.840;2022-08-06T13:09:02;39.70;24.10
21807;DHT22;11065;50.786;7.840;2022-08-06T13:11:34;39.60;24.00
21807;DHT22;11065;50.786;7.840;2022-08-06T13:14:13;39.40;23.70
21807;DHT22;11065;50.786;7.840;2022-08-06T13:16:46;39.10;23.40
21807;DHT22;11065;50.786;7.840;2022-08-06T13:19:21;38.80;23.70
21807;DHT22;11065;50.786;7.840;2022-08-06T13:22:00;38.60;23.70
21807;DHT22;11065;50.786;7.840;2022-08-06T13:24:31;38.30;23.60
21807;DHT22;11065;50.786;7.840;2022-08-06T13:27:01;38.10;23.60
21807;DHT22;11065;50.786;7.840;2022-08-06T13:29:34;38.00;23.60
21807;DHT22;11065;50.786;7.840;2022-08-06T13:32:24;37.90;23.70
21807;DHT22;11065;50.786;7.840;2022-08-06T13:35:08;37.90;23.80
21807;DHT22;11065;50.786;7.840;2022-08-06T13:37:50;38.00;23.70
21807;DHT22;11065;50.786;7.840;2022-08-06T13:43:13;37.90;23.30
21807;DHT22;11065;50.786;7.840;2022-08-06T13:46:05;37.60;23.10
21807;DHT22;11065;50.786;7.840;2022-08-06T13:51:13;36.80;23.00
21807;DHT22;11065;50.786;7.840;2022-08-06T13:53:57;36.50;23.30
21807;DHT22;11065;50.786;7.840;2022-08-06T13:56:40;36.40;23.50
21807;DHT22;11065;50.786;7.840;2022-08-06T13:59:09;36.30;23.40
21807;DHT22;11065;50.786;7.840;2022-08-06T14:01:36;36.30;23.60
21807;DHT22;11065;50.786;7.840;2022-08-06T14:04:16;36.30;23.60
21807;DHT22;11065;50.786;7.840;2022-08-06T14:06:46;36.30;23.60
21807;DHT22;11065;50.786;7.840;2022-08-06T14:09:15;36.30;23.40
21807;DHT22;11065;50.786;7.840;2022-08-06T14:11:51;36.30;23.60
21807;DHT22;11065;50.786;7.840;2022-08-06T14:14:21;36.40;23.70
21807;DHT22;11065;50.786;7.840;2022-08-06T14:16:50;36.50;23.70
21807;DHT22;11065;50.786;7.840;2022-08-06T14:19:17;36.50;23.80
21807;DHT22;11065;50.786;7.840;2022-08-06T14:22:05;36.60;23.70
21807;DHT22;11065;50.786;7.840;2022-08-06T14:24:34;36.70;23.80
21807;DHT22;11065;50.786;7.840;2022-08-06T14:27:07;36.70;23.80
21807;DHT22;11065;50.786;7.840;2022-08-06T14:29:42;36.80;23.70
21807;DHT22;11065;50.786;7.840;2022-08-06T14:32:30;36.80;23.70
21807;DHT22;11065;50.786;7.840;2022-08-06T14:34:57;36.80;23.60
21807;DHT22;11065;50.786;7.840;2022-08-06T14:37:31;36.70;23.40
21807;DHT22;11065;50.786;7.840;2022-08-06T14:40:18;36.60;23.40
21807;DHT22;11065;50.786;7.840;2022-08-06T14:43:24;36.50;23.40
21807;DHT22;11065;50.786;7.840;2022-08-06T14:46:32;36.40;23.50
21807;DHT22;11065;50.786;7.840;2022-08-06T14:49:00;36.20;23.40
21807;DHT22;11065;50.786;7.840;2022-08-06T14:51:39;36.20;23.50
21807;DHT22;11065;50.786;7.840;2022-08-06T14:54:27;36.10;23.40
21807;DHT22;11065;50.786;7.840;2022-08-06T14:57:03;36.00;23.40
21807;DHT22;11065;50.786;7.840;2022-08-06T14:59:45;36.00;23.40
21807;DHT22;11065;50.786;7.840;2022-08-06T15:02:19;35.90;23.40
21807;DHT22;11065;50.786;7.840;2022-08-06T15:04:46;35.80;23.40
21807;DHT22;11065;50.786;7.840;2022-08-06T15:07:19;35.80;23.40
21807;DHT22;11065;50.786;7.840;2022-08-06T15:10:06;35.80;23.50
21807;DHT22;11065;50.786;7.840;2022-08-06T15:12:54;35.70;23.30
21807;DHT22;11065;50.786;7.840;2022-08-06T15:15:31;35.60;23.30
21807;DHT22;11065;50.786;7.840;2022-08-06T15:18:12;35.60;23.40
21807;DHT22;11065;50.786;7.840;2022-08-06T15:20:59;35.50;23.40
21807;DHT22;11065;50.786;7.840;2022-08-06T15:23:26;35.50;23.30
21807;DHT22;11065;50.786;7.840;2022-08-06T15:26:12;35.40;23.40
21807;DHT22;11065;50.786;7.840;2022-08-06T15:28:59;35.40;23.40
21807;DHT22;11065;50.786;7.840;2022-08-06T15:31:36;35.40;23.50
21807;DHT22;11065;50.786;7.840;2022-08-06T15:34:05;35.30;23.40
21807;DHT22;11065;50.786;7.840;2022-08-06T15:36:33;35.20;23.40
21807;DHT22;11065;50.786;7.840;2022-08-06T15:39:02;35.10;23.30
21807;DHT22;11065;50.786;7.840;2022-08-06T15:41:35;35.00;23.70
21807;DHT22;11065;50.786;7.840;2022-08-06T15:44:08;34.90;23.30
21807;DHT22;11065;50.786;7.840;2022-08-06T15:46:35;34.80;23.40
21807;DHT22;11065;50.786;7.840;2022-08-06T15:49:07;34.80;23.50
21807;DHT22;11065;50.786;7.840;2022-08-06T15:51:37;34.70;23.50
21807;DHT22;11065;50.786;7.840;2022-08-06T15:54:04;34.50;23.40
21807;DHT22;11065;50.786;7.840;2022-08-06T15:56:31;34.40;23.40
21807;DHT22;11065;50.786;7.840;2022-08-06T15:59:17;34.30;23.40
21807;DHT22;11065;50.786;7.840;2022-08-06T16:01:47;34.20;23.40
21807;DHT22;11065;50.786;7.840;2022-08-06T16:04:30;34.10;23.40
21807;DHT22;11065;50.786;7.840;2022-08-06T16:07:06;33.90;23.30
21807;DHT22;11065;50.786;7.840;2022-08-06T16:09:35;33.70;23.40
21807;DHT22;11065;50.786;7.840;2022-08-06T16:12:22;33.60;23.50
21807;DHT22;11065;50.786;7.840;2022-08-06T16:14:50;33.40;23.50
21807;DHT22;11065;50.786;7.840;2022-08-06T16:17:23;33.30;23.60
21807;DHT22;11065;50.786;7.840;2022-08-06T16:20:11;33.10;23.70
21807;DHT22;11065;50.786;7.840;2022-08-06T16:22:47;33.00;23.70
21807;DHT22;11065;50.786;7.840;2022-08-06T16:25:14;33.00;23.80
21807;DHT22;11065;50.786;7.840;2022-08-06T16:27:42;32.80;23.70
21807;DHT22;11065;50.786;7.840;2022-08-06T16:30:13;32.80;23.70
21807;DHT22;11065;50.786;7.840;2022-08-06T16:32:41;32.60;23.80
21807;DHT22;11065;50.786;7.840;2022-08-06T16:35:11;32.60;23.80
21807;DHT22;11065;50.786;7.840;2022-08-06T16:37:41;32.40;23.80
21807;DHT22;11065;50.786;7.840;2022-08-06T16:40:08;32.40;23.80
21807;DHT22;11065;50.786;7.840;2022-08-06T16:42:35;32.20;23.80
21807;DHT22;11065;50.786;7.840;2022-08-06T16:45:04;32.10;23.90
21807;DHT22;11065;50.786;7.840;2022-08-06T16:47:40;32.00;24.30
21807;DHT22;11065;50.786;7.840;2022-08-06T16:50:28;31.80;23.90
21807;DHT22;11065;50.786;7.840;2022-08-06T16:53:06;31.70;23.90
21807;DHT22;11065;50.786;7.840;2022-08-06T16:55:53;31.50;24.00
21807;DHT22;11065;50.786;7.840;2022-08-06T16:58:21;31.50;24.10
21807;DHT22;11065;50.786;7.840;2022-08-06T17:01:06;31.40;24.10
21807;DHT22;11065;50.786;7.840;2022-08-06T17:03:53;31.30;24.10
21807;DHT22;11065;50.786;7.840;2022-08-06T17:06:25;31.20;24.20
21807;DHT22;11065;50.786;7.840;2022-08-06T17:08:56;31.10;24.20
21807;DHT22;11065;50.786;7.840;2022-08-06T17:11:23;31.10;24.30
21807;DHT22;11065;50.786;7.840;2022-08-06T17:14:11;31.00;24.30
21807;DHT22;11065;50.786;7.840;2022-08-06T17:16:40;30.90;24.30
21807;DHT22;11065;50.786;7.840;2022-08-06T17:19:09;30.80;24.40
21807;DHT22;11065;50.786;7.840;2022-08-06T17:21:56;30.70;24.30
21807;DHT22;11065;50.786;7.840;2022-08-06T17:24:30;30.60;24.40
21807;DHT22;11065;50.786;7.840;2022-08-06T17:27:17;30.50;24.40
21807;DHT22;11065;50.786;7.840;2022-08-06T17:30:06;30.40;24.40
21807;DHT22;11065;50.786;7.840;2022-08-06T17:32:35;30.30;24.50
21807;DHT22;11065;50.786;7.840;2022-08-06T17:35:14;30.20;24.50
21807;DHT22;11065;50.786;7.840;2022-08-06T17:37:42;30.10;24.50
21807;DHT22;11065;50.786;7.840;2022-08-06T17:40:30;30.00;24.50